createdAt,value
2017-09-20T00:00:06.370Z,1007.88
2017-09-20T00:01:07.786Z,1007.85
2017-09-20T00:02:09.212Z,1007.88
2017-09-20T00:03:10.622Z,1007.86
2017-09-20T00:04:12.044Z,1007.88
2017-09-20T00:05:13.458Z,1007.86
2017-09-20T00:06:14.871Z,1007.87
2017-09-20T00:07:16.284Z,1007.83
2017-09-20T00:08:17.701Z,1007.89
2017-09-20T00:09:19.123Z,1007.92
2017-09-20T00:10:20.538Z,1007.91
2017-09-20T00:11:21.958Z,1007.93
2017-09-20T00:12:23.375Z,1007.95
2017-09-20T00:13:24.782Z,1007.90
2017-09-20T00:14:26.203Z,1007.92
2017-09-20T00:15:27.620Z,1007.94
2017-09-20T00:16:29.042Z,1007.94
2017-09-20T00:17:30.462Z,1007.91
2017-09-20T00:18:31.885Z,1007.93
2017-09-20T00:19:33.308Z,1007.93
2017-09-20T00:20:34.731Z,1007.97
2017-09-20T00:21:36.153Z,1007.94
2017-09-20T00:22:37.566Z,1007.95
2017-09-20T00:23:38.991Z,1007.94
2017-09-20T00:24:40.422Z,1007.95
2017-09-20T00:25:41.840Z,1007.94
2017-09-20T00:26:43.262Z,1007.92
2017-09-20T00:27:44.678Z,1007.96
2017-09-20T00:28:46.095Z,1007.96
2017-09-20T00:29:47.519Z,1007.96
2017-09-20T00:30:48.938Z,1007.93
2017-09-20T00:31:50.360Z,1007.96
2017-09-20T00:32:51.781Z,1007.98
2017-09-20T00:33:53.196Z,1007.97
2017-09-20T00:34:54.618Z,1007.94
2017-09-20T00:35:56.036Z,1007.96
2017-09-20T00:36:57.460Z,1007.95
2017-09-20T00:37:58.874Z,1007.95
2017-09-20T00:39:00.298Z,1007.95
2017-09-20T00:40:01.706Z,1007.93
2017-09-20T00:41:03.119Z,1007.96
2017-09-20T00:42:04.542Z,1007.97
2017-09-20T00:43:05.966Z,1007.94
2017-09-20T00:44:07.387Z,1007.93
2017-09-20T00:45:08.807Z,1007.94
2017-09-20T00:46:10.229Z,1007.90
2017-09-20T00:47:11.646Z,1007.95
2017-09-20T00:48:13.062Z,1007.95
2017-09-20T00:49:14.483Z,1007.93
2017-09-20T00:50:15.893Z,1007.93
2017-09-20T00:51:17.316Z,1007.92
2017-09-20T00:52:18.726Z,1007.93
2017-09-20T00:53:20.150Z,1007.91
2017-09-20T00:54:21.571Z,1007.91
2017-09-20T00:55:22.993Z,1007.96
2017-09-20T00:56:24.409Z,1007.93
2017-09-20T00:57:25.819Z,1007.92
2017-09-20T00:58:27.241Z,1007.89
2017-09-20T00:59:28.653Z,1007.91
2017-09-20T01:00:30.061Z,1007.90
2017-09-20T01:01:31.480Z,1007.89
2017-09-20T01:02:32.906Z,1007.89
2017-09-20T01:03:34.349Z,1007.85
2017-09-20T01:04:35.735Z,1007.90
2017-09-20T01:05:37.164Z,1007.86
2017-09-20T01:06:38.582Z,1007.88
2017-09-20T01:07:39.998Z,1007.88
2017-09-20T01:08:41.436Z,1007.82
2017-09-20T01:09:42.860Z,1007.84
2017-09-20T01:10:44.342Z,1007.85
2017-09-20T01:11:45.795Z,1007.81
2017-09-20T01:12:47.214Z,1007.82
2017-09-20T01:13:48.627Z,1007.84
2017-09-20T01:14:50.107Z,1007.82
2017-09-20T01:15:51.524Z,1007.87
2017-09-20T01:16:52.950Z,1007.84
2017-09-20T01:17:54.363Z,1007.88
2017-09-20T01:18:55.789Z,1007.86
2017-09-20T01:19:57.206Z,1007.82
2017-09-20T01:20:58.620Z,1007.87
2017-09-20T01:22:00.027Z,1007.84
2017-09-20T01:23:01.449Z,1007.81
2017-09-20T01:24:02.861Z,1007.85
2017-09-20T01:25:04.296Z,1007.77
2017-09-20T01:26:05.708Z,1007.76
2017-09-20T01:27:07.122Z,1007.79
2017-09-20T01:28:08.543Z,1007.78
2017-09-20T01:29:09.964Z,1007.71
2017-09-20T01:30:11.380Z,1007.74
2017-09-20T01:31:12.795Z,1007.77
2017-09-20T01:32:14.213Z,1007.74
2017-09-20T01:33:15.627Z,1007.74
2017-09-20T01:34:17.040Z,1007.74
2017-09-20T01:35:18.451Z,1007.69
2017-09-20T01:36:19.877Z,1007.71
2017-09-20T01:37:21.298Z,1007.67
2017-09-20T01:38:22.705Z,1007.71
2017-09-20T01:39:24.121Z,1007.69
2017-09-20T01:40:25.538Z,1007.69
2017-09-20T01:41:26.954Z,1007.71
2017-09-20T01:42:28.373Z,1007.73
2017-09-20T01:43:29.792Z,1007.72
2017-09-20T01:44:31.205Z,1007.69
2017-09-20T01:45:32.618Z,1007.67
2017-09-20T01:46:34.042Z,1007.65
2017-09-20T01:47:35.456Z,1007.66
2017-09-20T01:48:36.875Z,1007.64
2017-09-20T01:49:38.293Z,1007.64
2017-09-20T01:50:39.718Z,1007.64
2017-09-20T01:51:41.132Z,1007.61
2017-09-20T01:52:42.545Z,1007.62
2017-09-20T01:53:43.960Z,1007.67
2017-09-20T01:54:45.382Z,1007.65
2017-09-20T01:55:46.799Z,1007.72
2017-09-20T01:56:48.214Z,1007.73
2017-09-20T01:57:49.631Z,1007.73
2017-09-20T01:58:51.050Z,1007.68
2017-09-20T01:59:52.467Z,1007.70
2017-09-20T02:00:53.877Z,1007.70
2017-09-20T02:01:55.294Z,1007.70
2017-09-20T02:02:56.710Z,1007.67
2017-09-20T02:03:58.118Z,1007.73
2017-09-20T02:04:59.534Z,1007.74
2017-09-20T02:06:00.947Z,1007.66
2017-09-20T02:07:02.370Z,1007.66
2017-09-20T02:08:03.782Z,1007.66
2017-09-20T02:09:05.256Z,1007.66
2017-09-20T02:10:06.681Z,1007.65
2017-09-20T02:11:08.103Z,1007.63
2017-09-20T02:12:09.527Z,1007.64
2017-09-20T02:13:10.942Z,1007.65
2017-09-20T02:14:12.369Z,1007.66
2017-09-20T02:15:13.802Z,1007.64
2017-09-20T02:16:15.238Z,1007.62
2017-09-20T02:17:16.662Z,1007.63
2017-09-20T02:18:18.105Z,1007.63
2017-09-20T02:19:19.517Z,1007.61
2017-09-20T02:20:20.930Z,1007.59
2017-09-20T02:21:22.356Z,1007.61
2017-09-20T02:22:23.774Z,1007.57
2017-09-20T02:23:25.196Z,1007.61
2017-09-20T02:24:26.612Z,1007.57
2017-09-20T02:25:28.031Z,1007.57
2017-09-20T02:26:29.444Z,1007.56
2017-09-20T02:27:30.860Z,1007.57
2017-09-20T02:28:32.282Z,1007.60
2017-09-20T02:29:33.695Z,1007.61
2017-09-20T02:30:35.108Z,1007.64
2017-09-20T02:31:36.523Z,1007.68
2017-09-20T02:32:37.944Z,1007.66
2017-09-20T02:33:39.359Z,1007.68
2017-09-20T02:34:40.774Z,1007.66
2017-09-20T02:35:42.276Z,1007.67
2017-09-20T02:36:43.687Z,1007.63
2017-09-20T02:37:45.105Z,1007.64
2017-09-20T02:38:46.521Z,1007.61
2017-09-20T02:39:48.018Z,1007.57
2017-09-20T02:40:49.434Z,1007.58
2017-09-20T02:41:50.848Z,1007.58
2017-09-20T02:42:52.269Z,1007.59
2017-09-20T02:43:53.697Z,1007.55
2017-09-20T02:44:55.108Z,1007.58
2017-09-20T02:45:56.529Z,1007.58
2017-09-20T02:46:57.947Z,1007.60
2017-09-20T02:47:59.367Z,1007.57
2017-09-20T02:49:00.787Z,1007.57
2017-09-20T02:50:02.208Z,1007.55
2017-09-20T02:51:03.637Z,1007.57
2017-09-20T02:52:05.049Z,1007.57
2017-09-20T02:53:06.470Z,1007.55
2017-09-20T02:54:07.888Z,1007.58
2017-09-20T02:55:09.311Z,1007.57
2017-09-20T02:56:10.728Z,1007.60
2017-09-20T02:57:12.138Z,1007.63
2017-09-20T02:58:13.553Z,1007.60
2017-09-20T02:59:14.969Z,1007.65
2017-09-20T03:00:16.400Z,1007.65
2017-09-20T03:01:17.819Z,1007.66
2017-09-20T03:02:19.241Z,1007.63
2017-09-20T03:03:20.659Z,1007.67
2017-09-20T03:04:22.081Z,1007.64
2017-09-20T03:05:23.502Z,1007.69
2017-09-20T03:06:24.916Z,1007.66
2017-09-20T03:07:26.351Z,1007.68
2017-09-20T03:08:27.773Z,1007.70
2017-09-20T03:09:29.195Z,1007.67
2017-09-20T03:10:30.620Z,1007.65
2017-09-20T03:11:32.046Z,1007.68
2017-09-20T03:12:33.461Z,1007.66
2017-09-20T03:13:34.871Z,1007.63
2017-09-20T03:14:36.288Z,1007.68
2017-09-20T03:15:37.705Z,1007.66
2017-09-20T03:16:39.139Z,1007.58
2017-09-20T03:17:40.557Z,1007.65
2017-09-20T03:18:41.975Z,1007.64
2017-09-20T03:19:43.401Z,1007.68
2017-09-20T03:20:44.819Z,1007.64
2017-09-20T03:21:46.253Z,1007.67
2017-09-20T03:22:47.700Z,1007.69
2017-09-20T03:23:49.118Z,1007.65
2017-09-20T03:24:50.534Z,1007.71
2017-09-20T03:25:52.006Z,1007.73
2017-09-20T03:26:53.476Z,1007.73
2017-09-20T03:27:54.892Z,1007.73
2017-09-20T03:28:56.320Z,1007.73
2017-09-20T03:29:57.847Z,1007.75
2017-09-20T03:30:59.266Z,1007.81
2017-09-20T03:32:00.677Z,1007.83
2017-09-20T03:33:02.097Z,1007.76
2017-09-20T03:34:03.512Z,1007.82
2017-09-20T03:35:04.927Z,1007.81
2017-09-20T03:36:06.339Z,1007.82
2017-09-20T03:37:07.752Z,1007.82
2017-09-20T03:38:09.168Z,1007.82
2017-09-20T03:39:10.593Z,1007.84
2017-09-20T03:40:12.014Z,1007.81
2017-09-20T03:41:13.470Z,1007.81
2017-09-20T03:42:14.872Z,1007.81
2017-09-20T03:43:16.291Z,1007.81
2017-09-20T03:44:17.720Z,1007.86
2017-09-20T03:45:19.143Z,1007.88
2017-09-20T03:46:20.558Z,1007.80
2017-09-20T03:47:21.966Z,1007.87
2017-09-20T03:48:23.387Z,1007.83
2017-09-20T03:49:24.810Z,1007.88
2017-09-20T03:50:26.221Z,1007.88
2017-09-20T03:51:27.638Z,1007.83
2017-09-20T03:52:29.059Z,1007.83
2017-09-20T03:53:30.480Z,1007.79
2017-09-20T03:54:31.895Z,1007.79
2017-09-20T03:55:33.307Z,1007.82
2017-09-20T03:56:34.739Z,1007.87
2017-09-20T03:57:36.163Z,1007.87
2017-09-20T03:58:37.589Z,1007.91
2017-09-20T03:59:39.004Z,1007.91
2017-09-20T04:00:40.423Z,1007.92
2017-09-20T04:01:41.840Z,1007.94
2017-09-20T04:02:43.254Z,1007.89
2017-09-20T04:03:44.666Z,1007.94
2017-09-20T04:04:46.090Z,1007.95
2017-09-20T04:05:47.513Z,1007.97
2017-09-20T04:06:48.932Z,1007.99
2017-09-20T04:07:50.348Z,1007.98
2017-09-20T04:08:51.765Z,1007.96
2017-09-20T04:09:53.183Z,1007.96
2017-09-20T04:10:54.613Z,1007.93
2017-09-20T04:11:56.031Z,1007.90
2017-09-20T04:12:57.450Z,1007.93
2017-09-20T04:13:58.874Z,1007.89
2017-09-20T04:15:00.388Z,1007.94
2017-09-20T04:16:01.862Z,1007.92
2017-09-20T04:17:03.286Z,1007.91
2017-09-20T04:18:04.702Z,1007.88
2017-09-20T04:19:06.114Z,1007.89
2017-09-20T04:20:07.548Z,1007.88
2017-09-20T04:21:08.961Z,1007.86
2017-09-20T04:22:10.380Z,1007.89
2017-09-20T04:23:11.833Z,1007.84
2017-09-20T04:24:13.247Z,1007.90
2017-09-20T04:25:14.672Z,1007.90
2017-09-20T04:26:16.095Z,1007.88
2017-09-20T04:27:17.518Z,1007.91
2017-09-20T04:28:18.940Z,1007.93
2017-09-20T04:29:20.361Z,1007.90
2017-09-20T04:30:21.786Z,1007.91
2017-09-20T04:31:23.207Z,1007.94
2017-09-20T04:32:24.618Z,1007.93
2017-09-20T04:33:26.030Z,1007.95
2017-09-20T04:34:27.450Z,1008.00
2017-09-20T04:35:28.870Z,1007.94
2017-09-20T04:36:30.285Z,1007.97
2017-09-20T04:37:31.702Z,1007.94
2017-09-20T04:38:33.121Z,1007.95
2017-09-20T04:39:34.544Z,1007.91
2017-09-20T04:40:35.954Z,1007.92
2017-09-20T04:41:37.374Z,1007.96
2017-09-20T04:42:38.789Z,1007.93
2017-09-20T04:43:40.212Z,1007.93
2017-09-20T04:44:41.627Z,1007.93
2017-09-20T04:45:43.051Z,1007.89
2017-09-20T04:46:44.467Z,1007.88
2017-09-20T04:47:45.883Z,1007.84
2017-09-20T04:48:47.303Z,1007.85
2017-09-20T04:49:48.714Z,1007.84
2017-09-20T04:50:50.130Z,1007.85
2017-09-20T04:51:51.549Z,1007.82
2017-09-20T04:52:52.960Z,1007.85
2017-09-20T04:53:54.377Z,1007.84
2017-09-20T04:54:55.796Z,1007.83
2017-09-20T04:55:57.217Z,1007.82
2017-09-20T04:56:58.628Z,1007.83
2017-09-20T04:58:00.099Z,1007.81
2017-09-20T04:59:01.513Z,1007.85
2017-09-20T05:00:02.927Z,1007.89
2017-09-20T05:01:04.370Z,1007.91
2017-09-20T05:02:05.793Z,1007.94
2017-09-20T05:03:07.216Z,1007.95
2017-09-20T05:04:08.636Z,1007.95
2017-09-20T05:05:10.061Z,1007.91
2017-09-20T05:06:11.482Z,1007.94
2017-09-20T05:07:12.897Z,1007.91
2017-09-20T05:08:14.311Z,1007.89
2017-09-20T05:09:15.730Z,1007.88
2017-09-20T05:10:17.153Z,1007.90
2017-09-20T05:11:18.571Z,1007.88
2017-09-20T05:12:19.989Z,1007.86
2017-09-20T05:13:21.400Z,1007.86
2017-09-20T05:14:22.821Z,1007.92
2017-09-20T05:15:24.237Z,1007.93
2017-09-20T05:16:25.656Z,1007.93
2017-09-20T05:17:27.080Z,1007.91
2017-09-20T05:18:28.520Z,1007.91
2017-09-20T05:19:29.948Z,1007.90
2017-09-20T05:20:31.366Z,1007.89
2017-09-20T05:21:32.782Z,1007.90
2017-09-20T05:22:34.205Z,1007.91
2017-09-20T05:23:35.624Z,1007.93
2017-09-20T05:24:37.042Z,1007.91
2017-09-20T05:25:38.467Z,1007.91
2017-09-20T05:26:39.883Z,1007.95
2017-09-20T05:27:41.301Z,1007.99
2017-09-20T05:28:42.714Z,1007.95
2017-09-20T05:29:44.132Z,1007.94
2017-09-20T05:30:45.557Z,1007.99
2017-09-20T05:31:46.981Z,1007.97
2017-09-20T05:32:48.409Z,1008.00
2017-09-20T05:33:49.832Z,1007.97
2017-09-20T05:34:51.247Z,1008.01
2017-09-20T05:35:52.664Z,1008.01
2017-09-20T05:36:54.086Z,1008.02
2017-09-20T05:37:55.512Z,1008.00
2017-09-20T05:39:07.757Z,1008.01
2017-09-20T05:40:09.873Z,1008.03
2017-09-20T05:41:11.300Z,1008.00
2017-09-20T05:42:12.724Z,1008.06
2017-09-20T05:43:14.142Z,1008.10
2017-09-20T05:44:15.564Z,1008.10
2017-09-20T05:45:16.983Z,1008.09
2017-09-20T05:46:18.395Z,1008.11
2017-09-20T05:47:19.814Z,1008.08
2017-09-20T05:48:21.236Z,1008.13
2017-09-20T05:49:22.679Z,1008.11
2017-09-20T05:50:24.105Z,1008.14
2017-09-20T05:51:25.516Z,1008.11
2017-09-20T05:52:26.932Z,1008.09
2017-09-20T05:53:28.356Z,1008.09
2017-09-20T05:54:29.785Z,1008.12
2017-09-20T05:55:31.203Z,1008.12
2017-09-20T05:56:32.618Z,1008.09
2017-09-20T05:57:34.043Z,1008.09
2017-09-20T05:58:35.462Z,1008.07
2017-09-20T05:59:36.882Z,1008.09
2017-09-20T06:00:38.304Z,1008.09
2017-09-20T06:01:39.722Z,1008.06
2017-09-20T06:02:41.137Z,1008.11
2017-09-20T06:03:42.581Z,1008.10
2017-09-20T06:04:43.993Z,1008.12
2017-09-20T06:05:45.415Z,1008.08
2017-09-20T06:06:46.833Z,1008.07
2017-09-20T06:07:48.254Z,1008.05
2017-09-20T06:08:49.675Z,1008.05
2017-09-20T06:09:51.103Z,1008.04
2017-09-20T06:10:52.533Z,1008.07
2017-09-20T06:11:53.963Z,1008.08
2017-09-20T06:12:55.380Z,1008.01
2017-09-20T06:13:56.812Z,1008.01
2017-09-20T06:14:58.234Z,1008.04
2017-09-20T06:15:59.651Z,1008.09
2017-09-20T06:17:01.071Z,1008.12
2017-09-20T06:18:02.496Z,1008.10
2017-09-20T06:19:03.959Z,1008.13
2017-09-20T06:20:05.384Z,1008.13
2017-09-20T06:21:06.814Z,1008.08
2017-09-20T06:22:08.280Z,1008.11
2017-09-20T06:23:09.681Z,1008.10
2017-09-20T06:24:11.104Z,1008.16
2017-09-20T06:25:12.526Z,1008.16
2017-09-20T06:26:13.960Z,1008.19
2017-09-20T06:27:15.379Z,1008.15
2017-09-20T06:28:16.843Z,1008.14
2017-09-20T06:29:18.266Z,1008.14
2017-09-20T06:30:19.697Z,1008.17
2017-09-20T06:31:21.125Z,1008.15
2017-09-20T06:32:22.544Z,1008.16
2017-09-20T06:33:23.965Z,1008.19
2017-09-20T06:34:25.388Z,1008.23
2017-09-20T06:35:26.807Z,1008.18
2017-09-20T06:36:28.233Z,1008.21
2017-09-20T06:37:29.647Z,1008.20
2017-09-20T06:38:31.075Z,1008.14
2017-09-20T06:39:32.493Z,1008.16
2017-09-20T06:40:33.909Z,1008.19
2017-09-20T06:41:35.335Z,1008.13
2017-09-20T06:42:36.757Z,1008.16
2017-09-20T06:43:38.174Z,1008.12
2017-09-20T06:44:39.592Z,1008.18
2017-09-20T06:45:41.021Z,1008.17
2017-09-20T06:46:42.448Z,1008.18
2017-09-20T06:47:43.898Z,1008.22
2017-09-20T06:48:45.288Z,1008.23
2017-09-20T06:49:46.708Z,1008.25
2017-09-20T06:50:48.124Z,1008.27
2017-09-20T06:51:49.550Z,1008.33
2017-09-20T06:52:51.010Z,1008.33
2017-09-20T06:53:52.429Z,1008.33
2017-09-20T06:54:53.847Z,1008.29
2017-09-20T06:55:55.262Z,1008.34
2017-09-20T06:56:56.683Z,1008.31
2017-09-20T06:57:58.104Z,1008.27
2017-09-20T06:58:59.528Z,1008.28
2017-09-20T07:00:00.950Z,1008.27
2017-09-20T07:01:02.364Z,1008.30
2017-09-20T07:02:03.783Z,1008.29
2017-09-20T07:03:05.208Z,1008.30
2017-09-20T07:04:06.624Z,1008.33
2017-09-20T07:05:08.048Z,1008.38
2017-09-20T07:06:09.495Z,1008.33
2017-09-20T07:07:10.901Z,1008.35
2017-09-20T07:08:12.319Z,1008.31
2017-09-20T07:09:13.754Z,1008.34
2017-09-20T07:10:15.175Z,1008.39
2017-09-20T07:11:16.598Z,1008.40
2017-09-20T07:12:18.014Z,1008.37
2017-09-20T07:13:19.436Z,1008.42
2017-09-20T07:14:20.859Z,1008.42
2017-09-20T07:15:22.288Z,1008.44
2017-09-20T07:16:23.705Z,1008.46
2017-09-20T07:17:25.128Z,1008.43
2017-09-20T07:18:26.548Z,1008.47
2017-09-20T07:19:27.962Z,1008.49
2017-09-20T07:20:29.395Z,1008.45
2017-09-20T07:21:30.818Z,1008.47
2017-09-20T07:22:32.240Z,1008.45
2017-09-20T07:23:33.673Z,1008.47
2017-09-20T07:24:35.705Z,1008.49
2017-09-20T07:25:37.152Z,1008.54
2017-09-20T07:26:38.577Z,1008.53
2017-09-20T07:27:39.999Z,1008.50
2017-09-20T07:28:41.423Z,1008.49
2017-09-20T07:29:42.848Z,1008.50
2017-09-20T07:30:44.272Z,1008.47
2017-09-20T07:31:45.691Z,1008.50
2017-09-20T07:32:47.112Z,1008.44
2017-09-20T07:33:48.540Z,1008.45
2017-09-20T07:34:49.967Z,1008.49
2017-09-20T07:35:51.384Z,1008.44
2017-09-20T07:36:52.818Z,1008.48
2017-09-20T07:37:54.234Z,1008.50
2017-09-20T07:38:55.657Z,1008.48
2017-09-20T07:39:57.093Z,1008.48
2017-09-20T07:40:58.514Z,1008.42
2017-09-20T07:41:59.937Z,1008.44
2017-09-20T07:43:01.355Z,1008.42
2017-09-20T07:44:02.785Z,1008.44
2017-09-20T07:45:04.238Z,1008.47
2017-09-20T07:46:05.670Z,1008.48
2017-09-20T07:47:07.097Z,1008.45
2017-09-20T07:48:08.516Z,1008.45
2017-09-20T07:49:09.939Z,1008.46
2017-09-20T07:50:11.413Z,1008.46
2017-09-20T07:51:12.841Z,1008.49
2017-09-20T07:52:14.263Z,1008.52
2017-09-20T07:53:15.686Z,1008.51
2017-09-20T07:54:17.109Z,1008.48
2017-09-20T07:55:18.628Z,1008.48
2017-09-20T07:56:20.141Z,1008.45
2017-09-20T07:57:21.572Z,1008.51
2017-09-20T07:58:22.997Z,1008.50
2017-09-20T07:59:24.419Z,1008.54
2017-09-20T08:00:25.844Z,1008.52
2017-09-20T08:01:27.262Z,1008.51
2017-09-20T08:02:28.683Z,1008.48
2017-09-20T08:03:30.158Z,1008.50
2017-09-20T08:04:31.582Z,1008.48
2017-09-20T08:05:33.000Z,1008.50
2017-09-20T08:06:34.419Z,1008.44
2017-09-20T08:07:35.846Z,1008.45
2017-09-20T08:08:37.264Z,1008.47
2017-09-20T08:09:38.695Z,1008.44
2017-09-20T08:10:40.110Z,1008.47
2017-09-20T08:11:41.535Z,1008.47
2017-09-20T08:12:42.987Z,1008.51
2017-09-20T08:13:44.412Z,1008.52
2017-09-20T08:14:45.832Z,1008.52
2017-09-20T08:15:47.250Z,1008.53
2017-09-20T08:16:48.671Z,1008.50
2017-09-20T08:17:50.092Z,1008.49
2017-09-20T08:18:51.524Z,1008.49
2017-09-20T08:19:52.953Z,1008.56
2017-09-20T08:20:54.374Z,1008.49
2017-09-20T08:21:55.789Z,1008.51
2017-09-20T08:22:57.213Z,1008.52
2017-09-20T08:23:58.641Z,1008.52
2017-09-20T08:25:00.064Z,1008.53
2017-09-20T08:26:01.480Z,1008.51
2017-09-20T08:27:02.907Z,1008.57
2017-09-20T08:28:04.348Z,1008.58
2017-09-20T08:29:05.811Z,1008.63
2017-09-20T08:30:07.241Z,1008.64
2017-09-20T08:31:08.659Z,1008.69
2017-09-20T08:32:10.131Z,1008.73
2017-09-20T08:33:11.555Z,1008.73
2017-09-20T08:34:12.982Z,1008.71
2017-09-20T08:35:14.475Z,1008.80
2017-09-20T08:36:15.899Z,1008.76
2017-09-20T08:37:17.320Z,1008.78
2017-09-20T08:38:18.739Z,1008.78
2017-09-20T08:39:20.161Z,1008.79
2017-09-20T08:40:21.591Z,1008.79
2017-09-20T08:41:23.008Z,1008.75
2017-09-20T08:42:24.431Z,1008.75
2017-09-20T08:43:25.876Z,1008.71
2017-09-20T08:44:27.290Z,1008.78
2017-09-20T08:45:28.715Z,1008.71
2017-09-20T08:46:30.145Z,1008.71
2017-09-20T08:47:31.562Z,1008.75
2017-09-20T08:48:32.987Z,1008.76
2017-09-20T08:49:34.410Z,1008.77
2017-09-20T08:50:35.831Z,1008.81
2017-09-20T08:51:37.254Z,1008.82
2017-09-20T08:52:38.675Z,1008.86
2017-09-20T08:53:40.112Z,1008.89
2017-09-20T08:54:41.530Z,1008.85
2017-09-20T08:55:42.957Z,1008.84
2017-09-20T08:56:44.404Z,1008.77
2017-09-20T08:57:45.834Z,1008.85
2017-09-20T08:58:47.259Z,1008.86
2017-09-20T08:59:48.683Z,1008.88
2017-09-20T09:00:50.103Z,1008.86
2017-09-20T09:01:51.535Z,1008.89
2017-09-20T09:02:52.995Z,1008.85
2017-09-20T09:03:54.387Z,1008.97
2017-09-20T09:04:55.815Z,1008.94
2017-09-20T09:05:57.247Z,1008.99
2017-09-20T09:06:58.663Z,1008.92
2017-09-20T09:08:00.100Z,1008.89
2017-09-20T09:09:01.525Z,1008.90
2017-09-20T09:10:02.939Z,1008.95
2017-09-20T09:11:04.363Z,1008.88
2017-09-20T09:12:05.783Z,1008.96
2017-09-20T09:13:07.210Z,1008.91
2017-09-20T09:14:08.640Z,1008.89
2017-09-20T09:15:10.061Z,1008.89
2017-09-20T09:16:11.484Z,1008.90
2017-09-20T09:17:12.910Z,1008.93
2017-09-20T09:18:14.335Z,1008.93
2017-09-20T09:19:15.757Z,1008.89
2017-09-20T09:20:17.185Z,1008.97
2017-09-20T09:21:18.608Z,1008.94
2017-09-20T09:22:20.054Z,1008.97
2017-09-20T09:23:21.470Z,1008.93
2017-09-20T09:24:22.894Z,1008.95
2017-09-20T09:25:24.315Z,1008.90
2017-09-20T09:26:25.742Z,1008.97
2017-09-20T09:27:27.159Z,1008.92
2017-09-20T09:28:28.582Z,1008.98
2017-09-20T09:29:30.038Z,1009.02
2017-09-20T09:30:31.454Z,1009.00
2017-09-20T09:31:32.882Z,1008.94
2017-09-20T09:32:34.303Z,1008.92
2017-09-20T09:33:35.736Z,1008.93
2017-09-20T09:34:37.161Z,1008.91
2017-09-20T09:35:38.594Z,1008.94
2017-09-20T09:36:40.041Z,1008.89
2017-09-20T09:37:41.461Z,1008.95
2017-09-20T09:38:42.881Z,1008.97
2017-09-20T09:39:44.302Z,1008.96
2017-09-20T09:40:45.722Z,1009.03
2017-09-20T09:41:47.139Z,1008.97
2017-09-20T09:42:48.566Z,1009.03
2017-09-20T09:43:49.991Z,1009.00
2017-09-20T09:44:51.419Z,1009.12
2017-09-20T09:45:52.842Z,1009.08
2017-09-20T09:46:54.266Z,1009.14
2017-09-20T09:47:55.680Z,1009.10
2017-09-20T09:48:57.103Z,1009.09
2017-09-20T09:49:58.519Z,1009.10
2017-09-20T09:50:59.956Z,1009.05
2017-09-20T09:52:01.386Z,1008.98
2017-09-20T09:53:02.816Z,1009.03
2017-09-20T09:54:04.247Z,1009.03
2017-09-20T09:55:05.672Z,1009.04
2017-09-20T09:56:07.094Z,1009.02
2017-09-20T09:57:09.065Z,1009.04
2017-09-20T09:58:10.494Z,1009.05
2017-09-20T09:59:11.921Z,1009.08
2017-09-20T10:00:13.351Z,1009.11
2017-09-20T10:01:14.773Z,1009.12
2017-09-20T10:02:16.193Z,1009.15
2017-09-20T10:03:17.616Z,1009.13
2017-09-20T10:04:19.065Z,1009.13
2017-09-20T10:05:20.463Z,1009.17
2017-09-20T10:06:21.890Z,1009.18
2017-09-20T10:07:23.318Z,1009.17
2017-09-20T10:08:24.749Z,1009.15
2017-09-20T10:09:26.178Z,1009.18
2017-09-20T10:10:27.607Z,1009.15
2017-09-20T10:11:29.031Z,1009.19
2017-09-20T10:12:30.455Z,1009.22
2017-09-20T10:13:31.880Z,1009.24
2017-09-20T10:14:33.301Z,1009.23
2017-09-20T10:15:34.726Z,1009.26
2017-09-20T10:16:36.151Z,1009.23
2017-09-20T10:17:37.576Z,1009.29
2017-09-20T10:18:39.001Z,1009.29
2017-09-20T10:19:40.430Z,1009.22
2017-09-20T10:20:41.853Z,1009.21
2017-09-20T10:21:43.277Z,1009.18
2017-09-20T10:22:44.705Z,1009.19
2017-09-20T10:23:46.127Z,1009.17
2017-09-20T10:24:47.555Z,1009.22
2017-09-20T10:25:48.975Z,1009.15
2017-09-20T10:26:50.402Z,1009.16
2017-09-20T10:27:51.839Z,1009.16
2017-09-20T10:28:53.260Z,1009.22
2017-09-20T10:29:54.691Z,1009.24
2017-09-20T10:30:56.119Z,1009.24
2017-09-20T10:31:57.543Z,1009.23
2017-09-20T10:32:58.962Z,1009.22
2017-09-20T10:34:00.385Z,1009.24
2017-09-20T10:35:01.820Z,1009.30
2017-09-20T10:36:03.249Z,1009.27
2017-09-20T10:37:05.167Z,1009.30
2017-09-20T10:38:06.593Z,1009.25
2017-09-20T10:39:08.027Z,1009.28
2017-09-20T10:40:09.455Z,1009.26
2017-09-20T10:41:10.884Z,1009.24
2017-09-20T10:42:12.311Z,1009.23
2017-09-20T10:43:13.738Z,1009.32
2017-09-20T10:44:15.164Z,1009.25
2017-09-20T10:45:16.592Z,1009.28
2017-09-20T10:46:18.012Z,1009.27
2017-09-20T10:47:19.441Z,1009.28
2017-09-20T10:48:20.877Z,1009.29
2017-09-20T10:49:22.305Z,1009.28
2017-09-20T10:50:23.731Z,1009.32
2017-09-20T10:51:25.151Z,1009.30
2017-09-20T10:52:26.575Z,1009.33
2017-09-20T10:53:28.035Z,1009.31
2017-09-20T10:54:29.452Z,1009.29
2017-09-20T10:55:30.882Z,1009.34
2017-09-20T10:56:32.351Z,1009.32
2017-09-20T10:57:33.775Z,1009.34
2017-09-20T10:58:35.207Z,1009.36
2017-09-20T10:59:36.632Z,1009.38
2017-09-20T11:00:38.057Z,1009.34
2017-09-20T11:01:39.487Z,1009.35
2017-09-20T11:02:40.915Z,1009.35
2017-09-20T11:03:42.337Z,1009.37
2017-09-20T11:04:43.765Z,1009.36
2017-09-20T11:05:45.193Z,1009.31
2017-09-20T11:06:46.621Z,1009.36
2017-09-20T11:07:48.051Z,1009.35
2017-09-20T11:08:49.477Z,1009.34
2017-09-20T11:09:50.902Z,1009.35
2017-09-20T11:10:52.336Z,1009.38
2017-09-20T11:11:53.770Z,1009.34
2017-09-20T11:12:55.210Z,1009.33
2017-09-20T11:13:56.640Z,1009.36
2017-09-20T11:14:58.072Z,1009.40
2017-09-20T11:15:59.483Z,1009.39
2017-09-20T11:17:00.911Z,1009.47
2017-09-20T11:18:02.333Z,1009.54
2017-09-20T11:19:03.775Z,1009.53
2017-09-20T11:20:05.216Z,1009.56
2017-09-20T11:21:06.628Z,1009.53
2017-09-20T11:22:08.053Z,1009.53
2017-09-20T11:23:09.474Z,1009.55
2017-09-20T11:24:10.901Z,1009.56
2017-09-20T11:25:12.323Z,1009.55
2017-09-20T11:26:13.751Z,1009.60
2017-09-20T11:27:15.177Z,1009.52
2017-09-20T11:28:16.604Z,1009.52
2017-09-20T11:29:18.041Z,1009.54
2017-09-20T11:30:19.471Z,1009.54
2017-09-20T11:31:20.899Z,1009.50
2017-09-20T11:32:22.326Z,1009.47
2017-09-20T11:33:23.752Z,1009.45
2017-09-20T11:34:25.180Z,1009.42
2017-09-20T11:35:26.622Z,1009.44
2017-09-20T11:36:28.056Z,1009.45
2017-09-20T11:37:29.478Z,1009.47
2017-09-20T11:38:30.908Z,1009.49
2017-09-20T11:39:32.338Z,1009.43
2017-09-20T11:40:33.778Z,1009.46
2017-09-20T11:41:35.200Z,1009.47
2017-09-20T11:42:36.623Z,1009.44
2017-09-20T11:43:38.039Z,1009.41
2017-09-20T11:44:39.467Z,1009.42
2017-09-20T11:45:40.891Z,1009.39
2017-09-20T11:46:42.313Z,1009.36
2017-09-20T11:47:43.731Z,1009.40
2017-09-20T11:48:45.161Z,1009.32
2017-09-20T11:49:46.585Z,1009.33
2017-09-20T11:50:48.012Z,1009.37
2017-09-20T11:51:49.438Z,1009.30
2017-09-20T11:52:50.871Z,1009.35
2017-09-20T11:53:52.324Z,1009.32
2017-09-20T11:54:53.775Z,1009.31
2017-09-20T11:55:55.193Z,1009.28
2017-09-20T11:56:56.619Z,1009.29
2017-09-20T11:57:58.070Z,1009.28
2017-09-20T11:58:59.501Z,1009.25
2017-09-20T12:00:00.924Z,1009.28
2017-09-20T12:01:02.420Z,1009.25
2017-09-20T12:02:03.847Z,1009.34
2017-09-20T12:03:05.280Z,1009.39
2017-09-20T12:04:06.717Z,1009.39
2017-09-20T12:05:08.144Z,1009.35
2017-09-20T12:06:09.616Z,1009.32
2017-09-20T12:07:11.049Z,1009.33
2017-09-20T12:08:12.474Z,1009.37
2017-09-20T12:09:13.916Z,1009.38
2017-09-20T12:10:15.340Z,1009.35
2017-09-20T12:11:16.772Z,1009.39
2017-09-20T12:12:18.204Z,1009.32
2017-09-20T12:13:19.633Z,1009.37
2017-09-20T12:14:21.056Z,1009.37
2017-09-20T12:15:22.488Z,1009.35
2017-09-20T12:16:23.918Z,1009.34
2017-09-20T12:17:25.343Z,1009.35
2017-09-20T12:18:26.776Z,1009.41
2017-09-20T12:19:28.213Z,1009.47
2017-09-20T12:20:29.638Z,1009.46
2017-09-20T12:21:31.063Z,1009.44
2017-09-20T12:22:32.508Z,1009.50